Phoenix-Mesa-Gateway Airport
KIWA : now visible

Airfield :











YOU CAN JOIN US ON...

 
LOGIN :

Register | Disclaimer

   EN    FR    IT 

 









Legend :    VFR   Marginal VFR   IFR   Intensive IFR   Very Intensive IFR
Visi :
Ceiling :
>= 8 km
>= 3000ft
5 to 8 km
1000 to 3000 ft
1500m to 5 km
500 to 1000 ft
800 to 1500m
200 to 500 ft
< 800m
< 200 ft
Symbols :   Thunderstorms  Fog  Heavy snow  Heavy precipitations  Wind > 20 kt






- Airport Elevation : 1382 ft


KIWA - Phoenix-Mesa-Gateway

CURRENT METAR :
  • 230815Z AUTO 12008KT 10SM BKN085 11/05 A2991 RMK AO2 T01100048

EXPIRED METARs :
  • 230755Z AUTO 17008KT 10SM CLR 12/05 A2991 RMK AO2 T01190045
  • 230735Z AUTO 16007KT 10SM SCT075 11/04 A2992 RMK AO2 T01090045
  • 230715Z AUTO 13008KT 10SM BKN075 12/05 A2992 RMK AO2 T01240047
  • 230650Z 17007KT 10SM BKN070 15/05 A2992
  • 230550Z 20011KT 10SM BKN070 15/04 A2993

TAF KIWA
Valid from the 23 at 06:00 until the 24 at 06:00 UTC


230520Z 2306/2406 18008KT P6SM VCSH SCT040 BKN050
FM230800 16008KT P6SM VCSH SCT030 OVC050
FM231800 20011KT P6SM VCSH SCT030 OVC050
FM240000 27007KT P6SM -SHRA SCT020 OVC050 AMD LTD TO CLD VIS AND WIND TIL 231200
KZAB FIR / North America



MET'MAP, your aeronautical weather chart ! - Copyright ORBIFLY December 2007 - Disclaimer

ORBIFLY MET'MAP TEAM :

Programming & Development : Alexandra Zaïnal
Concept & original design : Baudouin d'Aumeries
Assistance for programming : Marc-Olivier Méhu
Technical & hardware support : Manuel Goepfert

Contact : metmap@orbifly.com




SOURCES & CREDITS :

   NOAA       Earth
Advisory